Four Points, Texas
Current Conditions -  °F | °C
As of 4:51 AM on Friday 31 Oct 2014 (Local Time) from KATT Reporting Station
Overcast Overcast  
Wind Chill: 62°   Ceiling: 9000
Heat Index: 62°   Visibility: 10mi
Dew Point: 60°   Wind: 0mph
Humidity: 93%   Direction: NA
Pressure: 30.18"   Gusts: NA
Location:  30.3745°N, 97.8933°W
Report Text: KATT 310951Z AUTO 00000KT 10SM FEW050 BKN090 OVC110 17/16 A3018 RMK AO2 RAE15 SLP211 P0002 T01670156
Loading
Personal Weather Stations






























Interactive Weather Map
Tropical Storm Tracking
New forecast layout! Learn more

10-Day Weather Forecast

Advertisements
Track Severe Weather on mobile